createdAt,value
2023-07-16T00:00:54.224Z,73.90
2023-07-16T00:03:21.157Z,73.70
2023-07-16T00:05:52.162Z,73.60
2023-07-16T00:08:19.480Z,73.00
2023-07-16T00:10:46.672Z,73.20
2023-07-16T00:13:13.712Z,73.40
2023-07-16T00:15:40.741Z,73.20
2023-07-16T00:18:10.737Z,73.20
2023-07-16T00:20:37.840Z,72.70
2023-07-16T00:23:04.893Z,72.60
2023-07-16T00:25:32.065Z,72.40
2023-07-16T00:27:59.464Z,72.60
2023-07-16T00:30:26.437Z,72.40
2023-07-16T00:32:53.646Z,73.00
2023-07-16T00:35:20.573Z,72.40
2023-07-16T00:37:47.575Z,72.40
2023-07-16T00:40:14.837Z,72.30
2023-07-16T00:42:42.009Z,72.10
2023-07-16T00:45:14.528Z,72.00
2023-07-16T00:47:44.805Z,72.00
2023-07-16T00:50:13.304Z,72.10
2023-07-16T00:52:43.164Z,72.20
2023-07-16T00:55:10.725Z,72.20
2023-07-16T00:57:38.323Z,72.30
2023-07-16T01:00:06.264Z,72.10
2023-07-16T01:02:34.057Z,72.00
2023-07-16T01:05:01.495Z,72.00
2023-07-16T01:07:29.761Z,71.90
2023-07-16T01:09:57.376Z,72.10
2023-07-16T01:12:25.612Z,72.20
2023-07-16T01:14:53.824Z,72.20
2023-07-16T01:17:22.086Z,72.60
2023-07-16T01:19:49.059Z,72.60
2023-07-16T01:22:48.982Z,72.50
2023-07-16T01:25:51.230Z,72.40
2023-07-16T01:28:52.340Z,72.80
2023-07-16T01:31:19.960Z,72.90
2023-07-16T01:33:47.580Z,72.70
2023-07-16T01:36:15.536Z,73.10
2023-07-16T01:38:43.133Z,73.20
2023-07-16T01:41:10.211Z,73.80
2023-07-16T01:43:37.238Z,73.90
2023-07-16T01:46:04.646Z,73.30
2023-07-16T01:48:34.598Z,73.50
2023-07-16T01:51:01.883Z,73.60
2023-07-16T01:53:29.072Z,73.70
2023-07-16T01:55:56.159Z,73.90
2023-07-16T01:58:25.488Z,73.90
2023-07-16T02:00:52.647Z,74.00
2023-07-16T02:03:19.743Z,73.90
2023-07-16T02:05:46.975Z,74.10
2023-07-16T02:08:13.930Z,74.20
2023-07-16T02:10:41.075Z,74.10
2023-07-16T02:13:07.988Z,74.20
2023-07-16T02:15:35.084Z,74.40
2023-07-16T02:18:02.239Z,74.50
2023-07-16T02:20:29.231Z,74.50
2023-07-16T02:22:56.225Z,74.70
2023-07-16T02:25:24.764Z,74.90
2023-07-16T02:27:51.891Z,75.00
2023-07-16T02:30:19.272Z,75.10
2023-07-16T02:32:46.277Z,75.20
2023-07-16T02:35:13.480Z,75.40
2023-07-16T02:37:41.822Z,75.50
2023-07-16T02:40:09.733Z,75.70
2023-07-16T02:42:36.636Z,75.90
2023-07-16T02:45:03.993Z,76.00
2023-07-16T02:47:30.971Z,75.90
2023-07-16T02:49:57.931Z,75.70
2023-07-16T02:52:25.066Z,75.70
2023-07-16T02:54:52.083Z,75.90
2023-07-16T02:57:19.143Z,75.90
2023-07-16T02:59:46.152Z,76.00
2023-07-16T03:02:13.191Z,76.20
2023-07-16T03:04:40.241Z,76.40
2023-07-16T03:07:07.606Z,76.60
2023-07-16T03:09:34.664Z,76.60
2023-07-16T03:12:01.589Z,76.70
2023-07-16T03:14:29.071Z,76.80
2023-07-16T03:16:57.344Z,76.90
2023-07-16T03:19:24.440Z,77.00
2023-07-16T03:21:52.175Z,77.20
2023-07-16T03:24:19.121Z,77.30
2023-07-16T03:26:46.110Z,77.20
2023-07-16T03:29:13.073Z,77.30
2023-07-16T03:31:40.470Z,77.50
2023-07-16T03:34:07.567Z,77.60
2023-07-16T03:36:34.510Z,77.50
2023-07-16T03:39:02.812Z,77.60
2023-07-16T03:41:30.001Z,77.80
2023-07-16T03:43:57.302Z,78.00
2023-07-16T03:46:24.159Z,77.90
2023-07-16T03:48:57.440Z,77.80
2023-07-16T03:51:25.459Z,77.70
2023-07-16T03:53:52.328Z,77.70
2023-07-16T03:56:19.705Z,77.80
2023-07-16T03:58:46.697Z,77.70
2023-07-16T04:01:13.954Z,77.70
2023-07-16T04:03:40.921Z,77.70
2023-07-16T04:06:10.996Z,78.00
2023-07-16T04:08:39.811Z,77.50
2023-07-16T04:11:08.168Z,78.20
2023-07-16T04:13:38.209Z,77.50
2023-07-16T04:16:05.394Z,77.30
2023-07-16T04:18:32.717Z,77.30
2023-07-16T04:20:59.786Z,77.30
2023-07-16T04:23:26.760Z,77.30
2023-07-16T04:25:57.017Z,77.30
2023-07-16T04:28:24.230Z,77.30
2023-07-16T04:30:51.394Z,77.20
2023-07-16T04:33:20.315Z,77.20
2023-07-16T04:35:47.605Z,77.10
2023-07-16T04:38:15.616Z,76.90
2023-07-16T04:40:45.038Z,76.90
2023-07-16T04:43:12.120Z,76.70
2023-07-16T04:45:41.073Z,76.60
2023-07-16T04:48:11.119Z,76.60
2023-07-16T04:50:38.597Z,76.60
2023-07-16T04:53:05.809Z,76.30
2023-07-16T04:55:41.691Z,76.00
2023-07-16T04:58:08.639Z,75.70
2023-07-16T05:00:35.928Z,75.60
2023-07-16T05:03:03.576Z,75.30
2023-07-16T05:05:32.132Z,75.10
2023-07-16T05:07:59.272Z,74.90
2023-07-16T05:10:26.170Z,74.80
2023-07-16T05:12:52.998Z,74.60
2023-07-16T05:15:20.118Z,74.60
2023-07-16T05:17:48.133Z,75.00
2023-07-16T05:20:15.160Z,74.70
2023-07-16T05:22:42.115Z,73.90
2023-07-16T05:25:10.065Z,73.30
2023-07-16T05:27:37.005Z,72.90
2023-07-16T05:30:04.816Z,72.60
2023-07-16T05:32:31.881Z,72.50
2023-07-16T05:35:00.151Z,72.80
2023-07-16T05:37:28.831Z,72.10
2023-07-16T05:39:55.816Z,71.80
2023-07-16T05:42:22.853Z,71.20
2023-07-16T05:44:49.982Z,70.60
2023-07-16T05:47:17.011Z,70.30
2023-07-16T05:49:44.069Z,70.00
2023-07-16T05:52:11.095Z,69.30
2023-07-16T05:54:39.202Z,68.80
2023-07-16T05:57:06.810Z,68.20
2023-07-16T05:59:37.579Z,67.50
2023-07-16T06:02:05.752Z,67.00
2023-07-16T06:04:32.781Z,66.30
2023-07-16T06:06:59.819Z,65.90
2023-07-16T06:09:26.792Z,65.20
2023-07-16T06:11:53.959Z,64.30
2023-07-16T06:14:22.397Z,63.90
2023-07-16T06:16:49.637Z,63.80
2023-07-16T06:19:16.873Z,62.80
2023-07-16T06:21:44.090Z,62.00
2023-07-16T06:24:12.051Z,61.30
2023-07-16T06:26:39.995Z,60.80
2023-07-16T06:29:08.373Z,60.00
2023-07-16T06:31:35.715Z,59.90
2023-07-16T06:34:02.794Z,59.20
2023-07-16T06:36:29.928Z,58.90
2023-07-16T06:38:57.518Z,58.40
2023-07-16T06:41:24.522Z,57.60
2023-07-16T06:43:51.791Z,57.70
2023-07-16T06:46:19.123Z,56.70
2023-07-16T06:48:46.424Z,57.00
2023-07-16T06:51:13.380Z,56.10
2023-07-16T06:53:41.723Z,55.60
2023-07-16T06:56:08.592Z,54.30
2023-07-16T06:58:41.393Z,54.30
2023-07-16T07:01:08.530Z,54.00
2023-07-16T07:03:35.808Z,53.50
2023-07-16T07:06:06.150Z,53.60
2023-07-16T07:08:33.408Z,53.40
2023-07-16T07:11:00.387Z,52.70
2023-07-16T07:13:27.376Z,52.50
2023-07-16T07:15:55.949Z,53.10
2023-07-16T07:18:22.913Z,53.40
2023-07-16T07:20:50.513Z,54.70
2023-07-16T07:23:26.050Z,54.70
2023-07-16T07:25:53.717Z,54.20
2023-07-16T07:28:21.726Z,53.80
2023-07-16T07:30:49.050Z,52.50
2023-07-16T07:33:16.113Z,51.90
2023-07-16T07:35:43.388Z,50.90
2023-07-16T07:38:10.499Z,51.40
2023-07-16T07:40:37.491Z,51.10
2023-07-16T07:43:04.726Z,51.60
2023-07-16T07:45:31.880Z,51.40
2023-07-16T07:47:58.910Z,51.70
2023-07-16T07:50:27.054Z,53.20
2023-07-16T07:52:54.163Z,54.30
2023-07-16T07:55:21.274Z,55.20
2023-07-16T07:57:48.305Z,55.80
2023-07-16T08:00:15.728Z,55.90
2023-07-16T08:02:42.852Z,55.50
2023-07-16T08:05:10.313Z,54.00
2023-07-16T08:07:37.425Z,52.10
2023-07-16T08:10:04.901Z,51.20
2023-07-16T08:12:32.254Z,50.50
2023-07-16T08:15:00.152Z,50.30
2023-07-16T08:17:30.494Z,51.00
2023-07-16T08:19:57.602Z,49.90
2023-07-16T08:22:25.841Z,50.70
2023-07-16T08:24:53.394Z,51.00
2023-07-16T08:27:21.371Z,50.40
2023-07-16T08:29:48.684Z,49.80
2023-07-16T08:32:16.074Z,47.90
2023-07-16T08:34:43.443Z,47.20
2023-07-16T08:37:10.411Z,47.20
2023-07-16T08:39:37.540Z,47.70
2023-07-16T08:42:05.563Z,47.90
2023-07-16T08:44:32.599Z,48.80
2023-07-16T08:47:04.207Z,50.10
2023-07-16T08:49:31.747Z,51.70
2023-07-16T08:51:58.912Z,52.90
2023-07-16T08:54:27.168Z,53.20
2023-07-16T08:56:55.001Z,53.00
2023-07-16T08:59:24.982Z,52.70
2023-07-16T09:01:53.834Z,51.10
2023-07-16T09:04:20.984Z,50.30
2023-07-16T09:06:47.872Z,50.00
2023-07-16T09:09:23.825Z,50.00
2023-07-16T09:11:50.816Z,50.80
2023-07-16T09:14:23.289Z,51.30
2023-07-16T09:16:54.871Z,51.30
2023-07-16T09:19:23.217Z,50.90
2023-07-16T09:21:52.012Z,51.40
2023-07-16T09:24:21.822Z,51.60
2023-07-16T09:26:53.864Z,52.20
2023-07-16T09:29:21.489Z,52.20
2023-07-16T09:32:03.960Z,52.70
2023-07-16T09:34:31.305Z,53.60
2023-07-16T09:36:59.370Z,52.70
2023-07-16T09:39:27.565Z,52.00
2023-07-16T09:41:55.117Z,50.30
2023-07-16T09:44:22.096Z,49.00
2023-07-16T09:46:49.353Z,49.30
2023-07-16T09:49:17.641Z,50.20
2023-07-16T09:51:46.200Z,51.10
2023-07-16T09:54:17.219Z,52.10
2023-07-16T09:56:49.671Z,52.90
2023-07-16T09:59:19.226Z,52.90
2023-07-16T10:01:46.587Z,52.80
2023-07-16T10:04:22.239Z,53.50
2023-07-16T10:06:57.365Z,54.70
2023-07-16T10:09:51.992Z,53.10
2023-07-16T10:12:21.335Z,51.10
2023-07-16T10:14:51.204Z,49.70
2023-07-16T10:17:20.832Z,46.60
2023-07-16T10:20:16.996Z,45.10
2023-07-16T10:22:51.023Z,46.00
2023-07-16T10:25:22.000Z,47.00
2023-07-16T10:27:49.542Z,48.30
2023-07-16T10:30:17.740Z,49.80
2023-07-16T10:32:45.453Z,50.80
2023-07-16T10:35:13.587Z,51.20
2023-07-16T10:37:41.239Z,51.50
2023-07-16T10:40:12.949Z,52.00
2023-07-16T10:42:43.491Z,52.50
2023-07-16T10:45:11.194Z,52.40
2023-07-16T10:47:39.372Z,50.80
2023-07-16T10:50:09.128Z,50.70
2023-07-16T10:52:42.186Z,50.00
2023-07-16T10:55:09.279Z,49.50
2023-07-16T10:57:36.685Z,50.20
2023-07-16T11:00:05.058Z,49.10
2023-07-16T11:02:32.739Z,49.20
2023-07-16T11:05:02.110Z,47.80
2023-07-16T11:07:29.445Z,46.10
2023-07-16T11:09:56.609Z,44.10
2023-07-16T11:12:25.210Z,42.40
2023-07-16T11:14:56.764Z,41.70
2023-07-16T11:17:28.586Z,41.60
2023-07-16T11:19:56.557Z,42.60
2023-07-16T11:22:33.212Z,42.40
2023-07-16T11:25:01.166Z,44.40
2023-07-16T11:27:33.802Z,45.10
2023-07-16T11:30:01.737Z,44.70
2023-07-16T11:32:38.392Z,45.50
2023-07-16T11:35:12.210Z,45.90
2023-07-16T11:37:39.434Z,45.80
2023-07-16T11:40:09.182Z,46.60
2023-07-16T11:42:38.839Z,47.00
2023-07-16T11:45:15.679Z,46.40
2023-07-16T11:47:44.914Z,46.60
2023-07-16T11:50:12.738Z,46.70
2023-07-16T11:52:40.485Z,45.20
2023-07-16T11:55:07.931Z,44.40
2023-07-16T11:57:35.431Z,44.20
2023-07-16T12:00:04.620Z,42.50
2023-07-16T12:02:31.914Z,40.60
2023-07-16T12:04:59.251Z,40.20
2023-07-16T12:07:37.992Z,39.00
2023-07-16T12:10:06.773Z,38.00
2023-07-16T12:12:34.630Z,39.20
2023-07-16T12:15:01.865Z,37.80
2023-07-16T12:17:28.998Z,37.50
2023-07-16T12:19:56.562Z,37.20
2023-07-16T12:22:24.587Z,37.60
2023-07-16T12:24:51.593Z,36.30
2023-07-16T12:27:20.071Z,37.10
2023-07-16T12:29:47.173Z,36.30
2023-07-16T12:32:15.557Z,35.90
2023-07-16T12:34:42.551Z,35.90
2023-07-16T12:37:09.602Z,36.60
2023-07-16T12:39:36.701Z,35.80
2023-07-16T12:42:03.654Z,35.90
2023-07-16T12:44:31.086Z,36.40
2023-07-16T12:46:58.082Z,37.20
2023-07-16T12:49:25.025Z,38.20
2023-07-16T12:51:52.054Z,39.10
2023-07-16T12:54:19.236Z,39.70
2023-07-16T12:56:46.230Z,40.30
2023-07-16T12:59:13.470Z,40.90
2023-07-16T13:01:40.423Z,42.10
2023-07-16T13:04:08.111Z,42.10
2023-07-16T13:06:35.426Z,41.40
2023-07-16T13:09:05.300Z,41.40
2023-07-16T13:11:32.340Z,42.00
2023-07-16T13:13:59.418Z,41.80
2023-07-16T13:16:27.440Z,42.70
2023-07-16T13:18:54.698Z,43.50
2023-07-16T13:21:21.938Z,43.80
2023-07-16T13:23:48.961Z,43.40
2023-07-16T13:26:16.256Z,43.40
2023-07-16T13:28:43.963Z,43.40
2023-07-16T13:31:10.942Z,43.90
2023-07-16T13:33:38.030Z,44.20
2023-07-16T13:36:06.274Z,44.80
2023-07-16T13:38:33.518Z,44.40
2023-07-16T13:41:00.505Z,44.80
2023-07-16T13:43:27.531Z,45.10
2023-07-16T13:45:54.560Z,45.30
2023-07-16T13:48:21.711Z,44.80
2023-07-16T13:50:48.687Z,45.20
2023-07-16T13:53:16.765Z,45.40
2023-07-16T13:55:45.518Z,45.50
2023-07-16T13:58:12.839Z,45.90
2023-07-16T14:00:39.871Z,45.90
2023-07-16T14:03:07.720Z,45.60
2023-07-16T14:05:40.169Z,46.00
2023-07-16T14:08:09.719Z,46.10
2023-07-16T14:10:37.090Z,46.20
2023-07-16T14:13:04.190Z,46.50
2023-07-16T14:15:31.278Z,45.90
2023-07-16T14:17:58.266Z,46.20
2023-07-16T14:20:25.333Z,45.50
2023-07-16T14:22:52.586Z,45.60
2023-07-16T14:25:19.710Z,45.50
2023-07-16T14:27:46.670Z,45.30
2023-07-16T14:30:13.815Z,45.40
2023-07-16T14:32:41.106Z,45.60
2023-07-16T14:35:15.453Z,46.60
2023-07-16T14:37:54.564Z,46.60
2023-07-16T14:40:21.690Z,46.70
2023-07-16T14:42:48.695Z,47.00
2023-07-16T14:45:16.135Z,47.40
2023-07-16T14:47:43.177Z,47.70
2023-07-16T14:50:11.195Z,47.80
2023-07-16T14:52:38.467Z,47.90
2023-07-16T14:55:05.939Z,48.20
2023-07-16T14:57:32.974Z,48.20
2023-07-16T15:00:00.242Z,48.00
2023-07-16T15:02:27.283Z,48.20
2023-07-16T15:04:54.308Z,48.50
2023-07-16T15:07:21.871Z,48.60
2023-07-16T15:09:49.094Z,48.80
2023-07-16T15:12:16.121Z,48.60
2023-07-16T15:14:43.031Z,48.80
2023-07-16T15:17:10.003Z,48.90
2023-07-16T15:19:37.089Z,49.00
2023-07-16T15:22:06.796Z,48.90
2023-07-16T15:24:37.715Z,49.10
2023-07-16T15:27:05.235Z,48.70
2023-07-16T15:29:32.347Z,48.70
2023-07-16T15:32:02.412Z,48.60
2023-07-16T15:34:30.318Z,48.90
2023-07-16T15:36:57.287Z,48.80
2023-07-16T15:39:24.312Z,48.00
2023-07-16T15:41:51.422Z,48.10
2023-07-16T15:44:18.849Z,48.40
2023-07-16T15:46:45.944Z,48.20
2023-07-16T15:49:18.980Z,48.10
2023-07-16T15:51:46.958Z,47.80
2023-07-16T15:54:13.999Z,48.10
2023-07-16T15:56:42.553Z,48.40
2023-07-16T15:59:09.670Z,48.60
2023-07-16T16:01:36.866Z,49.10
2023-07-16T16:04:04.146Z,48.80
2023-07-16T16:06:32.142Z,49.00
2023-07-16T16:08:59.473Z,49.10
2023-07-16T16:11:26.727Z,49.50
2023-07-16T16:13:54.351Z,48.40
2023-07-16T16:16:21.848Z,48.80
2023-07-16T16:18:49.570Z,48.90
2023-07-16T16:21:16.825Z,48.80
2023-07-16T16:23:43.904Z,49.00
2023-07-16T16:26:12.214Z,49.60
2023-07-16T16:28:40.893Z,50.10
2023-07-16T16:31:08.321Z,50.40
2023-07-16T16:33:35.591Z,50.80
2023-07-16T16:36:02.678Z,50.50
2023-07-16T16:38:29.660Z,50.40
2023-07-16T16:41:08.908Z,50.40
2023-07-16T16:43:37.359Z,50.80
2023-07-16T16:46:04.639Z,51.00
2023-07-16T16:48:37.252Z,50.50
2023-07-16T16:51:04.652Z,50.60
2023-07-16T16:53:31.803Z,50.50
2023-07-16T16:56:04.868Z,50.70
2023-07-16T16:58:32.068Z,50.20
2023-07-16T17:00:59.133Z,50.50
2023-07-16T17:03:27.915Z,51.20
2023-07-16T17:05:57.119Z,51.80
2023-07-16T17:08:24.666Z,52.60
2023-07-16T17:10:51.705Z,53.00
2023-07-16T17:13:29.981Z,53.30
2023-07-16T17:16:10.258Z,54.00
2023-07-16T17:18:37.349Z,54.70
2023-07-16T17:21:04.946Z,55.30
2023-07-16T17:23:31.806Z,55.10
2023-07-16T17:25:58.855Z,55.10
2023-07-16T17:28:25.948Z,55.20
2023-07-16T17:30:54.297Z,55.30
2023-07-16T17:33:21.243Z,55.20
2023-07-16T17:35:48.338Z,55.10
2023-07-16T17:38:15.453Z,55.40
2023-07-16T17:40:42.476Z,54.80
2023-07-16T17:43:11.073Z,54.70
2023-07-16T17:45:38.130Z,55.20
2023-07-16T17:48:09.518Z,55.10
2023-07-16T17:50:40.611Z,55.00
2023-07-16T17:53:07.419Z,54.90
2023-07-16T17:55:36.623Z,55.00
2023-07-16T17:58:06.852Z,55.20
2023-07-16T18:00:36.496Z,55.50
2023-07-16T18:03:03.680Z,55.70
2023-07-16T18:05:31.530Z,55.80
2023-07-16T18:07:58.773Z,55.90
2023-07-16T18:10:26.915Z,56.20
2023-07-16T18:12:54.046Z,55.90
2023-07-16T18:15:24.186Z,56.30
2023-07-16T18:18:17.527Z,56.50
2023-07-16T18:20:47.276Z,56.30
2023-07-16T18:23:15.493Z,56.60
2023-07-16T18:25:45.414Z,56.70
2023-07-16T18:28:13.778Z,57.00
2023-07-16T18:30:42.869Z,57.30
2023-07-16T18:33:10.378Z,57.40
2023-07-16T18:35:40.137Z,57.30
2023-07-16T18:38:07.329Z,57.50
2023-07-16T18:40:35.808Z,57.40
2023-07-16T18:43:07.161Z,58.00
2023-07-16T18:45:37.033Z,58.10
2023-07-16T18:48:04.128Z,58.30
2023-07-16T18:50:32.606Z,58.50
2023-07-16T18:53:01.109Z,58.60
2023-07-16T18:55:28.499Z,58.90
2023-07-16T18:57:57.242Z,59.20
2023-07-16T19:00:27.053Z,59.10
2023-07-16T19:02:55.677Z,59.50
2023-07-16T19:05:25.684Z,59.50
2023-07-16T19:07:53.147Z,59.60
2023-07-16T19:10:20.218Z,60.00
2023-07-16T19:12:47.647Z,60.30
2023-07-16T19:15:14.901Z,60.40
2023-07-16T19:17:45.160Z,60.70
2023-07-16T19:20:22.938Z,61.00
2023-07-16T19:22:51.813Z,61.20
2023-07-16T19:25:21.021Z,61.20
2023-07-16T19:27:48.547Z,61.40
2023-07-16T19:30:20.956Z,61.60
2023-07-16T19:32:49.764Z,61.90
2023-07-16T19:35:19.043Z,62.10
2023-07-16T19:37:46.371Z,62.30
2023-07-16T19:40:13.452Z,62.60
2023-07-16T19:42:42.528Z,62.80
2023-07-16T19:45:15.718Z,62.80
2023-07-16T19:47:42.815Z,62.70
2023-07-16T19:50:17.157Z,62.40
2023-07-16T19:52:44.350Z,62.80
2023-07-16T19:55:11.488Z,62.70
2023-07-16T19:57:40.114Z,62.80
2023-07-16T20:00:13.274Z,63.40
2023-07-16T20:02:42.750Z,63.00
2023-07-16T20:05:16.014Z,63.40
2023-07-16T20:07:44.107Z,64.20
2023-07-16T20:10:11.240Z,64.30
2023-07-16T20:12:38.688Z,66.00
2023-07-16T20:15:07.652Z,65.90
2023-07-16T20:17:35.822Z,66.10
2023-07-16T20:20:11.496Z,66.30
2023-07-16T20:22:42.115Z,66.30
2023-07-16T20:25:09.952Z,65.90
2023-07-16T20:27:37.000Z,66.10
2023-07-16T20:30:05.319Z,65.90
2023-07-16T20:32:33.917Z,66.10
2023-07-16T20:35:01.460Z,66.10
2023-07-16T20:37:28.507Z,66.80
2023-07-16T20:39:55.508Z,66.80
2023-07-16T20:42:22.646Z,66.90
2023-07-16T20:45:30.094Z,67.30
2023-07-16T20:47:59.342Z,67.70
2023-07-16T20:50:28.550Z,67.50
2023-07-16T20:52:58.769Z,67.30
2023-07-16T20:55:26.684Z,67.60
2023-07-16T20:57:55.323Z,67.70
2023-07-16T21:00:25.956Z,67.90
2023-07-16T21:02:56.974Z,68.00
2023-07-16T21:05:25.899Z,68.10
2023-07-16T21:07:53.955Z,68.30
2023-07-16T21:10:24.900Z,68.60
2023-07-16T21:12:57.381Z,68.60
2023-07-16T21:15:25.377Z,68.30
2023-07-16T21:17:52.677Z,68.30
2023-07-16T21:20:20.177Z,68.70
2023-07-16T21:22:47.519Z,68.90
2023-07-16T21:25:15.086Z,69.10
2023-07-16T21:27:47.663Z,69.10
2023-07-16T21:30:15.055Z,69.10
2023-07-16T21:32:42.246Z,69.00
2023-07-16T21:35:09.854Z,69.10
2023-07-16T21:37:36.931Z,69.30
2023-07-16T21:40:07.238Z,69.20
2023-07-16T21:42:34.226Z,69.30
2023-07-16T21:45:01.706Z,69.30
2023-07-16T21:47:29.082Z,69.20
2023-07-16T21:49:56.222Z,69.10
2023-07-16T21:52:23.181Z,69.20
2023-07-16T21:54:50.283Z,69.10
2023-07-16T21:57:18.264Z,69.10
2023-07-16T21:59:45.298Z,69.30
2023-07-16T22:02:12.288Z,69.50
2023-07-16T22:04:39.432Z,69.50
2023-07-16T22:07:10.117Z,69.60
2023-07-16T22:09:37.328Z,70.30
2023-07-16T22:12:04.651Z,69.90
2023-07-16T22:14:31.811Z,69.90
2023-07-16T22:16:58.677Z,69.90
2023-07-16T22:19:32.544Z,70.00
2023-07-16T22:22:01.616Z,70.20
2023-07-16T22:24:28.771Z,70.20
2023-07-16T22:26:55.839Z,70.40
2023-07-16T22:29:23.038Z,70.30
2023-07-16T22:31:50.911Z,70.10
2023-07-16T22:34:18.053Z,70.10
2023-07-16T22:36:45.677Z,70.10
2023-07-16T22:39:13.323Z,70.00
2023-07-16T22:41:40.849Z,70.10
2023-07-16T22:44:08.147Z,69.90
2023-07-16T22:46:35.612Z,70.10
2023-07-16T22:49:02.781Z,70.10
2023-07-16T22:51:29.995Z,70.20
2023-07-16T22:53:57.521Z,70.60
2023-07-16T22:56:24.662Z,71.10
2023-07-16T22:58:51.888Z,71.50
2023-07-16T23:01:19.596Z,71.90
2023-07-16T23:03:47.003Z,72.30
2023-07-16T23:06:14.084Z,72.70
2023-07-16T23:08:41.092Z,73.00
2023-07-16T23:11:08.370Z,73.40
2023-07-16T23:13:38.417Z,73.80
2023-07-16T23:16:06.322Z,74.20
2023-07-16T23:18:33.518Z,74.60
2023-07-16T23:21:01.389Z,75.00
2023-07-16T23:23:28.426Z,75.30
2023-07-16T23:25:55.474Z,75.60
2023-07-16T23:28:22.858Z,75.70
2023-07-16T23:30:50.768Z,75.60
2023-07-16T23:33:19.089Z,75.60
2023-07-16T23:35:46.151Z,75.60
2023-07-16T23:38:13.324Z,75.30
2023-07-16T23:40:40.232Z,75.20
2023-07-16T23:43:07.458Z,75.10
2023-07-16T23:45:35.074Z,75.00
2023-07-16T23:48:02.201Z,75.50
2023-07-16T23:50:29.143Z,74.70
2023-07-16T23:52:56.115Z,74.60
2023-07-16T23:55:23.090Z,74.60
2023-07-16T23:57:50.312Z,74.60
